KRCA

Ellsworth AFB Airport

Rapid City, South Dakota, USA
METAR KRCA 182256Z AUTO 35021KT 10SM CLR 22/15 A2994 RMK AO2 PK WND 31029/04 SLP124 T02170153 $
Observed Flight Rules
Aug-18 @ 22:56 UTC (51 minutes ago) Visual Flight Rules
Wind Visibility Clouds
350° at 21 knots 10 miles
  • Clear skies
Temperatures Readings
Current 22°C / 72°F
Dewpoint 15°C / 59°F
Humidity 65%
Altimeter 29.94" Hg
Pressure 1012.4 hPa
Elevation 999
METAR KRCA 182256Z AUTO 35021KT 10SM CLR 22/15 A2994 RMK AO2 PK WND 31029/04 SLP124 T02170153 $
Observed Flight Rules
Aug-18 @ 22:56 UTC
(51 minutes ago)
VFR
Wind Visibility
350° at 21 knots 10 miles
Clouds
  • Clear skies
Temperature Dewpoint
22°C / 72°F 15°C / 59°F
Humidity Altimeter Pressure
65% 29.94" Hg 1012.4 hPa